Aviation Digital Data Service (ADDS)

Output produced by METARs form (0252 UTC 18 June 2019)
found at http://www.aviationweather.gov/metar/data/
 
METAR text: OIBP 180200Z 34010KT 7000 NSC 43/07 Q0996 A2942
Conditions at: OIBP (PERSIAN GULF APT, IR) observed 0200 UTC 18 June 2019
Temperature: 43.0°C (109°F)
Dewpoint: 7.0°C (45°F) [RH = 12%]
Pressure (altimeter): 29.41 inches Hg (996.0 mb)
Winds: from the NNW (340 degrees) at 12 MPH (10 knots; 5.1 m/s)
Visibility: 4 miles ( 7 km)
Ceiling: at least 12,000 feet AGL
Clouds: sky clear below 12,000 feet AGL
Weather: no significant weather observed at this time

METAR text: OIBP 180100Z 31021KT 6000 NSC 40/10 Q0995 A2941
Conditions at: OIBP (PERSIAN GULF APT, IR) observed 0100 UTC 18 June 2019
Temperature: 40.0°C (104°F)
Dewpoint: 10.0°C (50°F) [RH = 17%]
Pressure (altimeter): 29.38 inches Hg (995.0 mb)
Winds: from the NW (310 degrees) at 24 MPH (21 knots; 10.8 m/s)
Visibility: 4 miles ( 6 km)
Ceiling: at least 12,000 feet AGL
Clouds: sky clear below 12,000 feet AGL
Weather: no significant weather observed at this time

METAR text: OIBP 171700Z 00000KT CAVOK 34/26 Q0997 A2946
Conditions at: OIBP (PERSIAN GULF APT, IR) observed 1700 UTC 17 June 2019
Temperature: 34.0°C (93°F)
Dewpoint: 26.0°C (79°F) [RH = 63%]
Pressure (altimeter): 29.44 inches Hg (997.0 mb)
Winds: calm
Visibility: 6 or more miles (10+ km)
Ceiling: ceiling and visibility are OK
Clouds: unknown
Weather: no significant weather observed at this time

METAR text: OIBP 171600Z 21004KT CAVOK 35/26 Q0997 A2946
Conditions at: OIBP (PERSIAN GULF APT, IR) observed 1600 UTC 17 June 2019
Temperature: 35.0°C (95°F)
Dewpoint: 26.0°C (79°F) [RH = 60%]
Pressure (altimeter): 29.44 inches Hg (997.0 mb)
Winds: from the SSW (210 degrees) at 5 MPH (4 knots; 2.1 m/s)
Visibility: 6 or more miles (10+ km)
Ceiling: ceiling and visibility are OK
Clouds: unknown
Weather: no significant weather observed at this time

METAR text: OIBP 171530Z 20004KT CAVOK 36/25 Q0997 A2945
Conditions at: OIBP (PERSIAN GULF APT, IR) observed 1530 UTC 17 June 2019
Temperature: 36.0°C (97°F)
Dewpoint: 25.0°C (77°F) [RH = 53%]
Pressure (altimeter): 29.44 inches Hg (997.0 mb)
Winds: from the SSW (200 degrees) at 5 MPH (4 knots; 2.1 m/s)
Visibility: 6 or more miles (10+ km)
Ceiling: ceiling and visibility are OK
Clouds: unknown
Weather: no significant weather observed at this time

METAR text: OIBP 171500Z 19008KT CAVOK 38/23 Q0996 A2944
Conditions at: OIBP (PERSIAN GULF APT, IR) observed 1500 UTC 17 June 2019
Temperature: 38.0°C (100°F)
Dewpoint: 23.0°C (73°F) [RH = 42%]
Pressure (altimeter): 29.41 inches Hg (996.0 mb)
Winds: from the S (190 degrees) at 9 MPH (8 knots; 4.1 m/s)
Visibility: 6 or more miles (10+ km)
Ceiling: ceiling and visibility are OK
Clouds: unknown
Weather: no significant weather observed at this time

METAR text: OIBP 171430Z 19008KT CAVOK 39/24 Q0996 A2943
Conditions at: OIBP (PERSIAN GULF APT, IR) observed 1430 UTC 17 June 2019
Temperature: 39.0°C (102°F)
Dewpoint: 24.0°C (75°F) [RH = 43%]
Pressure (altimeter): 29.41 inches Hg (996.0 mb)
Winds: from the S (190 degrees) at 9 MPH (8 knots; 4.1 m/s)
Visibility: 6 or more miles (10+ km)
Ceiling: ceiling and visibility are OK
Clouds: unknown
Weather: no significant weather observed at this time

METAR text: OIBP 171400Z 18010KT CAVOK 39/25 Q0996 A2943
Conditions at: OIBP (PERSIAN GULF APT, IR) observed 1400 UTC 17 June 2019
Temperature: 39.0°C (102°F)
Dewpoint: 25.0°C (77°F) [RH = 45%]
Pressure (altimeter): 29.41 inches Hg (996.0 mb)
Winds: from the S (180 degrees) at 12 MPH (10 knots; 5.1 m/s)
Visibility: 6 or more miles (10+ km)
Ceiling: ceiling and visibility are OK
Clouds: unknown
Weather: no significant weather observed at this time

METAR text: OIBP 171300Z 19010KT CAVOK 39/25 Q0997 A2944
Conditions at: OIBP (PERSIAN GULF APT, IR) observed 1300 UTC 17 June 2019
Temperature: 39.0°C (102°F)
Dewpoint: 25.0°C (77°F) [RH = 45%]
Pressure (altimeter): 29.44 inches Hg (997.0 mb)
Winds: from the S (190 degrees) at 12 MPH (10 knots; 5.1 m/s)
Visibility: 6 or more miles (10+ km)
Ceiling: ceiling and visibility are OK
Clouds: unknown
Weather: no significant weather observed at this time

METAR text: OIBP 171230Z 18012KT CAVOK 40/25 Q0997 A2944
Conditions at: OIBP (PERSIAN GULF APT, IR) observed 1230 UTC 17 June 2019
Temperature: 40.0°C (104°F)
Dewpoint: 25.0°C (77°F) [RH = 43%]
Pressure (altimeter): 29.44 inches Hg (997.0 mb)
Winds: from the S (180 degrees) at 14 MPH (12 knots; 6.2 m/s)
Visibility: 6 or more miles (10+ km)
Ceiling: ceiling and visibility are OK
Clouds: unknown
Weather: no significant weather observed at this time

METAR text: OIBP 171200Z 18012KT CAVOK 40/25 Q0997 A2945
Conditions at: OIBP (PERSIAN GULF APT, IR) observed 1200 UTC 17 June 2019
Temperature: 40.0°C (104°F)
Dewpoint: 25.0°C (77°F) [RH = 43%]
Pressure (altimeter): 29.44 inches Hg (997.0 mb)
Winds: from the S (180 degrees) at 14 MPH (12 knots; 6.2 m/s)
Visibility: 6 or more miles (10+ km)
Ceiling: ceiling and visibility are OK
Clouds: unknown
Weather: no significant weather observed at this time

METAR text: OIBP 171130Z 19012KT CAVOK 41/24 Q0997 A2945
Conditions at: OIBP (PERSIAN GULF APT, IR) observed 1130 UTC 17 June 2019
Temperature: 41.0°C (106°F)
Dewpoint: 24.0°C (75°F) [RH = 38%]
Pressure (altimeter): 29.44 inches Hg (997.0 mb)
Winds: from the S (190 degrees) at 14 MPH (12 knots; 6.2 m/s)
Visibility: 6 or more miles (10+ km)
Ceiling: ceiling and visibility are OK
Clouds: unknown
Weather: no significant weather observed at this time

METAR text: OIBP 171100Z 20012KT 7000 NSC 41/25 Q0997 A2946
Conditions at: OIBP (PERSIAN GULF APT, IR) observed 1100 UTC 17 June 2019
Temperature: 41.0°C (106°F)
Dewpoint: 25.0°C (77°F) [RH = 41%]
Pressure (altimeter): 29.44 inches Hg (997.0 mb)
Winds: from the SSW (200 degrees) at 14 MPH (12 knots; 6.2 m/s)
Visibility: 4 miles ( 7 km)
Ceiling: at least 12,000 feet AGL
Clouds: sky clear below 12,000 feet AGL
Weather: no significant weather observed at this time

METAR text: OIBP 171030Z 20010KT 6000 NSC 42/26 Q0997 A2946
Conditions at: OIBP (PERSIAN GULF APT, IR) observed 1030 UTC 17 June 2019
Temperature: 42.0°C (108°F)
Dewpoint: 26.0°C (79°F) [RH = 41%]
Pressure (altimeter): 29.44 inches Hg (997.0 mb)
Winds: from the SSW (200 degrees) at 12 MPH (10 knots; 5.1 m/s)
Visibility: 4 miles ( 6 km)
Ceiling: at least 12,000 feet AGL
Clouds: sky clear below 12,000 feet AGL
Weather: no significant weather observed at this time

METAR text: OIBP 171000Z 19010KT 6000 NSC 42/26 Q0997 A2947
Conditions at: OIBP (PERSIAN GULF APT, IR) observed 1000 UTC 17 June 2019
Temperature: 42.0°C (108°F)
Dewpoint: 26.0°C (79°F) [RH = 41%]
Pressure (altimeter): 29.44 inches Hg (997.0 mb)
Winds: from the S (190 degrees) at 12 MPH (10 knots; 5.1 m/s)
Visibility: 4 miles ( 6 km)
Ceiling: at least 12,000 feet AGL
Clouds: sky clear below 12,000 feet AGL
Weather: no significant weather observed at this time

METAR text: OIBP 170930Z 20010KT 6000 NSC 41/26 Q0997 A2947
Conditions at: OIBP (PERSIAN GULF APT, IR) observed 0930 UTC 17 June 2019
Temperature: 41.0°C (106°F)
Dewpoint: 26.0°C (79°F) [RH = 43%]
Pressure (altimeter): 29.44 inches Hg (997.0 mb)
Winds: from the SSW (200 degrees) at 12 MPH (10 knots; 5.1 m/s)
Visibility: 4 miles ( 6 km)
Ceiling: at least 12,000 feet AGL
Clouds: sky clear below 12,000 feet AGL
Weather: no significant weather observed at this time

METAR text: OIBP 170900Z 19008KT 5000 HZ NSC 42/26 Q0998 A2947
Conditions at: OIBP (PERSIAN GULF APT, IR) observed 0900 UTC 17 June 2019
Temperature: 42.0°C (108°F)
Dewpoint: 26.0°C (79°F) [RH = 41%]
Pressure (altimeter): 29.47 inches Hg (998.0 mb)
Winds: from the S (190 degrees) at 9 MPH (8 knots; 4.1 m/s)
Visibility: 3 miles ( 5 km)
Ceiling: at least 12,000 feet AGL
Clouds: sky clear below 12,000 feet AGL
Weather: HZ  (haze)

METAR text: OIBP 170830Z 20008KT 5000 HZ NSC 43/26 Q0998 A2948
Conditions at: OIBP (PERSIAN GULF APT, IR) observed 0830 UTC 17 June 2019
Temperature: 43.0°C (109°F)
Dewpoint: 26.0°C (79°F) [RH = 39%]
Pressure (altimeter): 29.47 inches Hg (998.0 mb)
Winds: from the SSW (200 degrees) at 9 MPH (8 knots; 4.1 m/s)
Visibility: 3 miles ( 5 km)
Ceiling: at least 12,000 feet AGL
Clouds: sky clear below 12,000 feet AGL
Weather: HZ  (haze)

METAR text: OIBP 170800Z 18006KT 5000 HZ NSC 42/25 Q0998 A2948
Conditions at: OIBP (PERSIAN GULF APT, IR) observed 0800 UTC 17 June 2019
Temperature: 42.0°C (108°F)
Dewpoint: 25.0°C (77°F) [RH = 39%]
Pressure (altimeter): 29.47 inches Hg (998.0 mb)
Winds: from the S (180 degrees) at 7 MPH (6 knots; 3.1 m/s)
Visibility: 3 miles ( 5 km)
Ceiling: at least 12,000 feet AGL
Clouds: sky clear below 12,000 feet AGL
Weather: HZ  (haze)

METAR text: OIBP 170730Z 17008KT 4000 HZ NSC 41/25 Q0998 A2949
Conditions at: OIBP (PERSIAN GULF APT, IR) observed 0730 UTC 17 June 2019
Temperature: 41.0°C (106°F)
Dewpoint: 25.0°C (77°F) [RH = 41%]
Pressure (altimeter): 29.47 inches Hg (998.0 mb)
Winds: from the S (170 degrees) at 9 MPH (8 knots; 4.1 m/s)
Visibility: 2.49 miles (4.01 km)
Ceiling: at least 12,000 feet AGL
Clouds: sky clear below 12,000 feet AGL
Weather: HZ  (haze)

METAR text: OIBP 170700Z 17008KT 4000 HZ NSC 41/25 Q0998 A2949
Conditions at: OIBP (PERSIAN GULF APT, IR) observed 0700 UTC 17 June 2019
Temperature: 41.0°C (106°F)
Dewpoint: 25.0°C (77°F) [RH = 41%]
Pressure (altimeter): 29.47 inches Hg (998.0 mb)
Winds: from the S (170 degrees) at 9 MPH (8 knots; 4.1 m/s)
Visibility: 2.49 miles (4.01 km)
Ceiling: at least 12,000 feet AGL
Clouds: sky clear below 12,000 feet AGL
Weather: HZ  (haze)

METAR text: OIBP 170630Z 16008KT 4000 HZ NSC 40/26 Q0998 A2949
Conditions at: OIBP (PERSIAN GULF APT, IR) observed 0630 UTC 17 June 2019
Temperature: 40.0°C (104°F)
Dewpoint: 26.0°C (79°F) [RH = 46%]
Pressure (altimeter): 29.47 inches Hg (998.0 mb)
Winds: from the SSE (160 degrees) at 9 MPH (8 knots; 4.1 m/s)
Visibility: 2.49 miles (4.01 km)
Ceiling: at least 12,000 feet AGL
Clouds: sky clear below 12,000 feet AGL
Weather: HZ  (haze)

METAR text: OIBP 170600Z 15010KT 4000 HZ NSC 37/26 Q0998 A2949
Conditions at: OIBP (PERSIAN GULF APT, IR) observed 0600 UTC 17 June 2019
Temperature: 37.0°C (99°F)
Dewpoint: 26.0°C (79°F) [RH = 54%]
Pressure (altimeter): 29.47 inches Hg (998.0 mb)
Winds: from the SSE (150 degrees) at 12 MPH (10 knots; 5.1 m/s)
Visibility: 2.49 miles (4.01 km)
Ceiling: at least 12,000 feet AGL
Clouds: sky clear below 12,000 feet AGL
Weather: HZ  (haze)

METAR text: OIBP 170530Z 14010KT 3500 HZ NSC 37/27 Q0998 A2949
Conditions at: OIBP (PERSIAN GULF APT, IR) observed 0530 UTC 17 June 2019
Temperature: 37.0°C (99°F)
Dewpoint: 27.0°C (81°F) [RH = 57%]
Pressure (altimeter): 29.47 inches Hg (998.0 mb)
Winds: from the SE (140 degrees) at 12 MPH (10 knots; 5.1 m/s)
Visibility: 2.17 miles (3.49 km)
Ceiling: at least 12,000 feet AGL
Clouds: sky clear below 12,000 feet AGL
Weather: HZ  (haze)

METAR text: OIBP 170500Z 14010KT 3500 HZ NSC 34/28 Q0998 A2948
Conditions at: OIBP (PERSIAN GULF APT, IR) observed 0500 UTC 17 June 2019
Temperature: 34.0°C (93°F)
Dewpoint: 28.0°C (82°F) [RH = 71%]
Pressure (altimeter): 29.47 inches Hg (998.0 mb)
Winds: from the SE (140 degrees) at 12 MPH (10 knots; 5.1 m/s)
Visibility: 2.17 miles (3.49 km)
Ceiling: at least 12,000 feet AGL
Clouds: sky clear below 12,000 feet AGL
Weather: HZ  (haze)

METAR text: OIBP 170430Z 15010KT 3000 HZ NSC 33/28 Q0998 A2947
Conditions at: OIBP (PERSIAN GULF APT, IR) observed 0430 UTC 17 June 2019
Temperature: 33.0°C (91°F)
Dewpoint: 28.0°C (82°F) [RH = 75%]
Pressure (altimeter): 29.47 inches Hg (998.0 mb)
Winds: from the SSE (150 degrees) at 12 MPH (10 knots; 5.1 m/s)
Visibility: 1.86 miles (2.99 km)
Ceiling: at least 12,000 feet AGL
Clouds: sky clear below 12,000 feet AGL
Weather: HZ  (haze)

METAR text: OIBP 170400Z 14006KT 2500 BR NSC 31/28 Q0997 A2946
Conditions at: OIBP (PERSIAN GULF APT, IR) observed 0400 UTC 17 June 2019
Temperature: 31.0°C (88°F)
Dewpoint: 28.0°C (82°F) [RH = 84%]
Pressure (altimeter): 29.44 inches Hg (997.0 mb)
Winds: from the SE (140 degrees) at 7 MPH (6 knots; 3.1 m/s)
Visibility: 1.55 miles (2.49 km)
Ceiling: at least 12,000 feet AGL
Clouds: sky clear below 12,000 feet AGL
Weather: BR  (mist)

METAR text: OIBP 170330Z 14006KT 2200 BR NSC 30/27 Q0997 A2946
Conditions at: OIBP (PERSIAN GULF APT, IR) observed 0330 UTC 17 June 2019
Temperature: 30.0°C (86°F)
Dewpoint: 27.0°C (81°F) [RH = 84%]
Pressure (altimeter): 29.44 inches Hg (997.0 mb)
Winds: from the SE (140 degrees) at 7 MPH (6 knots; 3.1 m/s)
Visibility: 1.37 miles (2.20 km)
Ceiling: at least 12,000 feet AGL
Clouds: sky clear below 12,000 feet AGL
Weather: BR  (mist)

METAR text: OIBP 170300Z 14004KT 1200 BR NSC 29/27 Q0997 A2944
Conditions at: OIBP (PERSIAN GULF APT, IR) observed 0300 UTC 17 June 2019
Temperature: 29.0°C (84°F)
Dewpoint: 27.0°C (81°F) [RH = 89%]
Pressure (altimeter): 29.44 inches Hg (997.0 mb)
Winds: from the SE (140 degrees) at 5 MPH (4 knots; 2.1 m/s)
Visibility: 0.75 miles (1.21 km)
Ceiling: at least 12,000 feet AGL
Clouds: sky clear below 12,000 feet AGL
Weather: BR  (mist)

METAR text: OIBP 170230Z 00000KT 1000 BR NSC 28/27 Q0997 A2944
Conditions at: OIBP (PERSIAN GULF APT, IR) observed 0230 UTC 17 June 2019
Temperature: 28.0°C (82°F)
Dewpoint: 27.0°C (81°F) [RH = 94%]
Pressure (altimeter): 29.44 inches Hg (997.0 mb)
Winds: calm
Visibility: 0.62 miles (1.00 km)
Ceiling: at least 12,000 feet AGL
Clouds: sky clear below 12,000 feet AGL
Weather: BR  (mist)

METAR text: OIBP 170200Z 00000KT 1000 BR NSC 28/26 Q0996 A2943
Conditions at: OIBP (PERSIAN GULF APT, IR) observed 0200 UTC 17 June 2019
Temperature: 28.0°C (82°F)
Dewpoint: 26.0°C (79°F) [RH = 89%]
Pressure (altimeter): 29.41 inches Hg (996.0 mb)
Winds: calm
Visibility: 0.62 miles (1.00 km)
Ceiling: at least 12,000 feet AGL
Clouds: sky clear below 12,000 feet AGL
Weather: BR  (mist)

METAR text: OIBP 170100Z 00000KT 7000 NSC 28/26 Q0996 A2942
Conditions at: OIBP (PERSIAN GULF APT, IR) observed 0100 UTC 17 June 2019
Temperature: 28.0°C (82°F)
Dewpoint: 26.0°C (79°F) [RH = 89%]
Pressure (altimeter): 29.41 inches Hg (996.0 mb)
Winds: calm
Visibility: 4 miles ( 7 km)
Ceiling: at least 12,000 feet AGL
Clouds: sky clear below 12,000 feet AGL
Weather: no significant weather observed at this time

METAR text: OIBP 161700Z 30004KT 7000 NSC 33/29 Q0998 A2948
Conditions at: OIBP (PERSIAN GULF APT, IR) observed 1700 UTC 16 June 2019
Temperature: 33.0°C (91°F)
Dewpoint: 29.0°C (84°F) [RH = 80%]
Pressure (altimeter): 29.47 inches Hg (998.0 mb)
Winds: from the WNW (300 degrees) at 5 MPH (4 knots; 2.1 m/s)
Visibility: 4 miles ( 7 km)
Ceiling: at least 12,000 feet AGL
Clouds: sky clear below 12,000 feet AGL
Weather: no significant weather observed at this time

METAR text: OIBP 161630Z 32004KT 7000 NSC 34/27 Q0998 A2948
Conditions at: OIBP (PERSIAN GULF APT, IR) observed 1630 UTC 16 June 2019
Temperature: 34.0°C (93°F)
Dewpoint: 27.0°C (81°F) [RH = 67%]
Pressure (altimeter): 29.47 inches Hg (998.0 mb)
Winds: from the NW (320 degrees) at 5 MPH (4 knots; 2.1 m/s)
Visibility: 4 miles ( 7 km)
Ceiling: at least 12,000 feet AGL
Clouds: sky clear below 12,000 feet AGL
Weather: no significant weather observed at this time

METAR text: OIBP 161600Z 30004KT 7000 NSC 35/28 Q0998 A2947
Conditions at: OIBP (PERSIAN GULF APT, IR) observed 1600 UTC 16 June 2019
Temperature: 35.0°C (95°F)
Dewpoint: 28.0°C (82°F) [RH = 67%]
Pressure (altimeter): 29.47 inches Hg (998.0 mb)
Winds: from the WNW (300 degrees) at 5 MPH (4 knots; 2.1 m/s)
Visibility: 4 miles ( 7 km)
Ceiling: at least 12,000 feet AGL
Clouds: sky clear below 12,000 feet AGL
Weather: no significant weather observed at this time

METAR text: OIBP 161530Z 26004KT CAVOK 36/26 Q0998 A2947
Conditions at: OIBP (PERSIAN GULF APT, IR) observed 1530 UTC 16 June 2019
Temperature: 36.0°C (97°F)
Dewpoint: 26.0°C (79°F) [RH = 57%]
Pressure (altimeter): 29.47 inches Hg (998.0 mb)
Winds: from the W (260 degrees) at 5 MPH (4 knots; 2.1 m/s)
Visibility: 6 or more miles (10+ km)
Ceiling: ceiling and visibility are OK
Clouds: unknown
Weather: no significant weather observed at this time

METAR text: OIBP 161500Z 23004KT CAVOK 37/26 Q0997 A2947
Conditions at: OIBP (PERSIAN GULF APT, IR) observed 1500 UTC 16 June 2019
Temperature: 37.0°C (99°F)
Dewpoint: 26.0°C (79°F) [RH = 54%]
Pressure (altimeter): 29.44 inches Hg (997.0 mb)
Winds: from the SW (230 degrees) at 5 MPH (4 knots; 2.1 m/s)
Visibility: 6 or more miles (10+ km)
Ceiling: ceiling and visibility are OK
Clouds: unknown
Weather: no significant weather observed at this time